createdAt,value
2023-02-11T00:01:23.909Z,5.22
2023-02-11T00:03:52.470Z,5.90
2023-02-11T00:06:21.018Z,5.90
2023-02-11T00:08:49.444Z,7.32
2023-02-11T00:11:20.207Z,5.47
2023-02-11T00:13:49.159Z,5.30
2023-02-11T00:16:21.111Z,7.07
2023-02-11T00:18:50.412Z,5.30
2023-02-11T00:21:20.880Z,6.97
2023-02-11T00:23:49.623Z,4.53
2023-02-11T00:26:19.732Z,5.00
2023-02-11T00:28:48.991Z,5.53
2023-02-11T00:31:20.731Z,4.45
2023-02-11T00:33:49.233Z,5.00
2023-02-11T00:36:19.617Z,3.60
2023-02-11T00:38:49.067Z,2.97
2023-02-11T00:41:17.996Z,3.13
2023-02-11T00:43:46.894Z,3.20
2023-02-11T00:46:16.200Z,2.55
2023-02-11T00:48:46.201Z,4.13
2023-02-11T00:51:14.743Z,3.00
2023-02-11T00:53:43.028Z,3.00
2023-02-11T00:56:12.033Z,4.30
2023-02-11T00:58:40.526Z,3.63
2023-02-11T01:01:09.090Z,4.20
2023-02-11T01:03:37.500Z,2.90
2023-02-11T01:06:09.280Z,3.13
2023-02-11T01:08:37.943Z,2.42
2023-02-11T01:11:12.592Z,3.17
2023-02-11T01:13:41.100Z,4.68
2023-02-11T01:16:10.725Z,2.92
2023-02-11T01:18:39.643Z,3.53
2023-02-11T01:21:09.357Z,4.13
2023-02-11T01:23:37.655Z,4.38
2023-02-11T01:26:06.554Z,3.77
2023-02-11T01:28:34.898Z,3.93
2023-02-11T01:31:04.213Z,3.95
2023-02-11T01:33:32.573Z,4.30
2023-02-11T01:36:03.321Z,4.22
2023-02-11T01:38:33.103Z,4.43
2023-02-11T01:41:04.146Z,4.47
2023-02-11T01:43:35.289Z,4.28
2023-02-11T01:46:30.165Z,3.50
2023-02-11T01:49:02.486Z,3.40
2023-02-11T01:51:35.577Z,3.20
2023-02-11T01:54:24.620Z,5.03
2023-02-11T01:57:14.084Z,2.73
2023-02-11T01:59:47.187Z,5.47
2023-02-11T02:02:18.889Z,3.40
2023-02-11T02:04:53.726Z,3.65
2023-02-11T02:07:31.672Z,5.72
2023-02-11T02:10:05.494Z,5.03
2023-02-11T02:12:33.856Z,5.33
2023-02-11T02:15:20.438Z,4.75
2023-02-11T02:17:58.572Z,4.63
2023-02-11T02:20:56.486Z,5.00
2023-02-11T02:23:34.561Z,5.30
2023-02-11T02:26:33.097Z,4.50
2023-02-11T02:29:41.916Z,5.00
2023-02-11T02:32:30.949Z,6.05
2023-02-11T02:35:07.255Z,4.32
2023-02-11T02:37:39.761Z,5.47
2023-02-11T02:40:14.101Z,5.05
2023-02-11T02:42:44.263Z,2.80
2023-02-11T02:45:14.025Z,4.40
2023-02-11T02:47:43.836Z,3.13
2023-02-11T02:50:14.015Z,5.75
2023-02-11T02:52:49.860Z,4.35
2023-02-11T02:55:33.105Z,3.13
2023-02-11T02:58:34.709Z,3.27
2023-02-11T03:01:10.022Z,3.78
2023-02-11T03:03:56.280Z,3.85
2023-02-11T03:06:32.201Z,3.27
2023-02-11T03:09:08.487Z,3.28
2023-02-11T03:11:39.376Z,4.60
2023-02-11T03:14:12.049Z,3.95
2023-02-11T03:16:41.230Z,5.65
2023-02-11T03:19:16.886Z,3.50
2023-02-11T03:21:48.383Z,2.85
2023-02-11T03:24:22.039Z,2.58
2023-02-11T03:26:53.298Z,5.10
2023-02-11T03:29:33.347Z,6.35
2023-02-11T03:32:07.975Z,6.72
2023-02-11T03:34:44.890Z,5.78
2023-02-11T03:37:19.113Z,5.55
2023-02-11T03:39:52.636Z,4.28
2023-02-11T03:42:21.749Z,6.30
2023-02-11T03:44:53.836Z,6.97
2023-02-11T03:47:27.126Z,5.45
2023-02-11T03:49:59.442Z,5.50
2023-02-11T03:52:30.604Z,3.92
2023-02-11T03:55:01.891Z,4.68
2023-02-11T03:57:30.686Z,4.50
2023-02-11T04:00:00.469Z,5.72
2023-02-11T04:02:31.465Z,4.22
2023-02-11T04:05:01.243Z,4.50
2023-02-11T04:07:29.839Z,4.82
2023-02-11T04:09:58.118Z,5.05
2023-02-11T04:12:26.481Z,6.93
2023-02-11T04:14:54.798Z,4.28
2023-02-11T04:17:23.072Z,4.22
2023-02-11T04:19:51.325Z,2.83
2023-02-11T04:22:21.057Z,3.00
2023-02-11T04:24:49.563Z,5.35
2023-02-11T04:27:17.843Z,7.30
2023-02-11T04:29:46.163Z,5.72
2023-02-11T04:32:14.554Z,5.80
2023-02-11T04:34:42.883Z,3.75
2023-02-11T04:37:11.347Z,3.47
2023-02-11T04:39:41.161Z,5.05
2023-02-11T04:42:09.556Z,3.83
2023-02-11T04:44:37.835Z,5.72
2023-02-11T04:47:06.331Z,4.15
2023-02-11T04:49:34.654Z,3.42
2023-02-11T04:52:03.034Z,3.83
2023-02-11T04:54:31.440Z,3.55
2023-02-11T04:57:01.312Z,3.58
2023-02-11T04:59:30.470Z,6.00
2023-02-11T05:01:58.863Z,4.07
2023-02-11T05:04:27.144Z,4.53
2023-02-11T05:06:57.701Z,5.68
2023-02-11T05:09:26.958Z,4.55
2023-02-11T05:11:55.249Z,3.20
2023-02-11T05:14:25.131Z,4.78
2023-02-11T05:16:53.465Z,3.72
2023-02-11T05:19:21.815Z,4.40
2023-02-11T05:22:01.799Z,4.20
2023-02-11T05:24:30.805Z,5.20
2023-02-11T05:26:59.069Z,5.10
2023-02-11T05:29:28.837Z,5.05
2023-02-11T05:31:57.182Z,4.80
2023-02-11T05:34:25.493Z,5.63
2023-02-11T05:36:53.715Z,3.65
2023-02-11T05:39:21.991Z,4.40
2023-02-11T05:41:50.333Z,3.10
2023-02-11T05:44:18.672Z,4.72
2023-02-11T05:46:49.252Z,5.03
2023-02-11T05:49:18.298Z,5.80
2023-02-11T05:51:46.774Z,5.25
2023-02-11T05:54:15.301Z,4.18
2023-02-11T05:56:44.921Z,3.75
2023-02-11T05:59:15.125Z,3.85
2023-02-11T06:01:43.586Z,5.72
2023-02-11T06:04:13.423Z,5.45
2023-02-11T06:06:41.812Z,3.88
2023-02-11T06:09:11.088Z,3.03
2023-02-11T06:11:39.642Z,2.33
2023-02-11T06:14:07.958Z,3.88
2023-02-11T06:16:36.255Z,2.33
2023-02-11T06:19:05.034Z,3.75
2023-02-11T06:21:43.408Z,2.57
2023-02-11T06:24:12.396Z,3.55
2023-02-11T06:26:40.732Z,3.65
2023-02-11T06:29:09.271Z,3.05
2023-02-11T06:31:39.664Z,3.60
2023-02-11T06:34:08.106Z,3.58
2023-02-11T06:36:39.563Z,5.00
2023-02-11T06:39:07.947Z,4.35
2023-02-11T06:41:36.387Z,5.90
2023-02-11T06:44:04.764Z,6.93
2023-02-11T06:46:33.619Z,4.88
2023-02-11T06:49:01.934Z,4.93
2023-02-11T06:51:30.318Z,3.80
2023-02-11T06:54:00.035Z,3.00
2023-02-11T06:56:28.366Z,2.53
2023-02-11T06:58:57.356Z,2.38
2023-02-11T07:01:27.484Z,3.75
2023-02-11T07:03:55.949Z,4.85
2023-02-11T07:06:27.752Z,3.28
2023-02-11T07:08:56.863Z,3.53
2023-02-11T07:11:29.148Z,2.38
2023-02-11T07:14:01.755Z,3.10
2023-02-11T07:16:30.212Z,5.05
2023-02-11T07:18:58.644Z,1.55
2023-02-11T07:21:27.089Z,5.53
2023-02-11T07:23:55.543Z,2.65
2023-02-11T07:26:25.844Z,3.40
2023-02-11T07:28:56.717Z,4.35
2023-02-11T07:31:27.037Z,2.72
2023-02-11T07:33:57.032Z,3.95
2023-02-11T07:36:25.932Z,3.67
2023-02-11T07:38:54.525Z,5.80
2023-02-11T07:41:25.394Z,4.28
2023-02-11T07:43:55.529Z,4.20
2023-02-11T07:46:25.573Z,4.60
2023-02-11T07:48:55.029Z,3.67
2023-02-11T07:51:25.659Z,2.90
2023-02-11T07:53:55.379Z,3.85
2023-02-11T07:56:24.336Z,5.25
2023-02-11T07:58:53.252Z,7.53
2023-02-11T08:01:27.283Z,5.18
2023-02-11T08:03:56.645Z,8.25
2023-02-11T08:06:27.670Z,5.03
2023-02-11T08:08:56.121Z,4.28
2023-02-11T08:11:26.242Z,4.72
2023-02-11T08:13:55.417Z,3.35
2023-02-11T08:16:27.211Z,5.75
2023-02-11T08:18:58.607Z,5.95
2023-02-11T08:21:27.951Z,6.18
2023-02-11T08:23:56.878Z,5.93
2023-02-11T08:26:28.496Z,6.03
2023-02-11T08:28:58.826Z,4.22
2023-02-11T08:31:31.382Z,3.65
2023-02-11T08:34:00.108Z,4.27
2023-02-11T08:36:31.003Z,4.60
2023-02-11T08:39:17.464Z,3.58
2023-02-11T08:41:49.067Z,4.60
2023-02-11T08:44:17.743Z,3.88
2023-02-11T08:46:48.013Z,4.80
2023-02-11T08:49:35.309Z,5.72
2023-02-11T08:52:04.323Z,3.70
2023-02-11T08:54:32.759Z,2.22
2023-02-11T08:57:01.982Z,3.53
2023-02-11T08:59:30.900Z,5.32
2023-02-11T09:02:00.703Z,4.80
2023-02-11T09:04:29.020Z,5.70
2023-02-11T09:06:57.393Z,6.00
2023-02-11T09:09:25.892Z,4.05
2023-02-11T09:11:57.277Z,5.67
2023-02-11T09:14:26.240Z,2.97
2023-02-11T09:16:54.907Z,6.07
2023-02-11T09:19:24.705Z,2.70
2023-02-11T09:21:52.955Z,4.53
2023-02-11T09:24:21.369Z,3.72
2023-02-11T09:26:50.342Z,3.15
2023-02-11T09:29:18.669Z,4.70
2023-02-11T09:31:47.193Z,7.28
2023-02-11T09:34:16.023Z,4.03
2023-02-11T09:36:45.793Z,6.00
2023-02-11T09:39:18.334Z,3.40
2023-02-11T09:42:11.736Z,2.95
2023-02-11T09:44:41.130Z,3.27
2023-02-11T09:47:24.828Z,6.25
2023-02-11T09:49:58.450Z,2.90
2023-02-11T09:52:35.159Z,4.25
2023-02-11T09:55:06.041Z,3.77
2023-02-11T09:57:36.732Z,4.53
2023-02-11T10:00:19.253Z,4.55
2023-02-11T10:03:12.206Z,4.13
2023-02-11T10:05:56.454Z,5.13
2023-02-11T10:08:36.030Z,4.32
2023-02-11T10:11:17.577Z,3.00
2023-02-11T10:14:02.113Z,4.75
2023-02-11T10:16:44.173Z,5.90
2023-02-11T10:19:36.638Z,5.22
2023-02-11T10:22:13.109Z,4.75
2023-02-11T10:24:45.619Z,8.93
2023-02-11T10:27:20.482Z,4.32
2023-02-11T10:29:54.763Z,4.15
2023-02-11T10:32:32.448Z,4.30
2023-02-11T10:35:05.012Z,4.07
2023-02-11T10:37:33.383Z,6.22
2023-02-11T10:40:03.112Z,6.83
2023-02-11T10:42:31.875Z,6.38
2023-02-11T10:45:04.373Z,4.20
2023-02-11T10:47:38.728Z,3.95
2023-02-11T10:50:20.672Z,4.15
2023-02-11T10:52:48.916Z,6.83
2023-02-11T10:55:21.879Z,4.38
2023-02-11T10:57:57.636Z,4.05
2023-02-11T11:00:38.053Z,6.35
2023-02-11T11:03:15.913Z,3.75
2023-02-11T11:05:49.867Z,4.80
2023-02-11T11:08:19.008Z,4.50
2023-02-11T11:10:50.654Z,5.95
2023-02-11T11:13:28.739Z,5.65
2023-02-11T11:16:22.890Z,9.82
2023-02-11T11:18:53.237Z,4.47
2023-02-11T11:21:24.259Z,5.73
2023-02-11T11:23:56.208Z,8.07
2023-02-11T11:26:27.481Z,4.95
2023-02-11T11:28:59.189Z,6.25
2023-02-11T11:31:32.297Z,5.10
2023-02-11T11:34:02.218Z,2.83
2023-02-11T11:36:37.510Z,8.55
2023-02-11T11:39:20.422Z,6.63
2023-02-11T11:41:55.085Z,6.03
2023-02-11T11:44:27.886Z,4.88
2023-02-11T11:47:21.712Z,7.20
2023-02-11T11:49:57.470Z,5.28
2023-02-11T11:52:38.962Z,7.97
2023-02-11T11:55:18.461Z,5.47
2023-02-11T11:57:48.749Z,5.68
2023-02-11T12:00:20.642Z,4.97
2023-02-11T12:03:21.797Z,7.35
2023-02-11T12:06:00.360Z,5.53
2023-02-11T12:08:41.291Z,7.10
2023-02-11T12:11:16.425Z,5.32
2023-02-11T12:14:01.684Z,6.30
2023-02-11T12:16:37.611Z,4.88
2023-02-11T12:19:27.944Z,5.53
2023-02-11T12:22:06.326Z,6.82
2023-02-11T12:24:57.658Z,6.57
2023-02-11T12:27:43.855Z,5.30
2023-02-11T12:30:24.477Z,10.02
2023-02-11T12:33:00.162Z,12.15
2023-02-11T12:35:38.927Z,6.77
2023-02-11T12:38:25.937Z,8.23
2023-02-11T12:41:07.214Z,5.50
2023-02-11T12:43:37.642Z,5.13
2023-02-11T12:46:35.474Z,6.20
2023-02-11T12:49:15.944Z,6.25
2023-02-11T12:51:57.228Z,5.35
2023-02-11T12:54:30.163Z,4.93
2023-02-11T12:57:04.586Z,4.72
2023-02-11T12:59:50.086Z,5.50
2023-02-11T13:02:29.088Z,5.00
2023-02-11T13:05:02.119Z,6.32
2023-02-11T13:07:35.950Z,4.63
2023-02-11T13:10:17.965Z,5.00
2023-02-11T13:13:06.991Z,4.25
2023-02-11T13:15:35.448Z,5.13
2023-02-11T13:18:19.186Z,3.03
2023-02-11T13:20:52.987Z,3.85
2023-02-11T13:23:30.596Z,6.53
2023-02-11T13:26:06.799Z,6.80
2023-02-11T13:28:44.960Z,4.50
2023-02-11T13:31:16.299Z,3.83
2023-02-11T13:33:46.137Z,3.57
2023-02-11T13:36:25.218Z,2.92
2023-02-11T13:39:02.936Z,4.67
2023-02-11T13:41:34.544Z,5.68
2023-02-11T13:44:07.221Z,4.55
2023-02-11T13:46:57.280Z,6.47
2023-02-11T13:49:32.502Z,5.18
2023-02-11T13:52:02.537Z,3.47
2023-02-11T13:54:34.907Z,3.88
2023-02-11T13:57:30.690Z,4.00
2023-02-11T14:00:00.318Z,3.30
2023-02-11T14:02:49.647Z,3.92
2023-02-11T14:05:48.283Z,4.07
2023-02-11T14:08:39.343Z,4.00
2023-02-11T14:11:12.829Z,3.25
2023-02-11T14:14:04.783Z,5.13
2023-02-11T14:16:38.332Z,6.20
2023-02-11T14:19:08.383Z,4.60
2023-02-11T14:21:40.929Z,5.25
2023-02-11T14:24:46.601Z,2.45
2023-02-11T14:27:24.881Z,4.90
2023-02-11T14:30:18.158Z,3.47
2023-02-11T14:33:01.668Z,2.95
2023-02-11T14:35:37.336Z,2.83
2023-02-11T14:38:16.109Z,5.93
2023-02-11T14:40:52.891Z,6.03
2023-02-11T14:43:28.426Z,5.05
2023-02-11T14:45:59.202Z,5.22
2023-02-11T14:48:32.412Z,5.38
2023-02-11T14:51:07.473Z,4.35
2023-02-11T14:53:39.036Z,4.80
2023-02-11T14:56:19.476Z,4.35
2023-02-11T14:58:48.976Z,3.65
2023-02-11T15:01:32.652Z,3.17
2023-02-11T15:04:02.797Z,3.53
2023-02-11T15:06:33.734Z,2.17
2023-02-11T15:09:07.144Z,1.90
2023-02-11T15:11:40.328Z,9.73
2023-02-11T15:14:11.226Z,7.90
2023-02-11T15:16:44.055Z,4.77
2023-02-11T15:19:24.015Z,11.30
2023-02-11T15:21:53.096Z,4.87
2023-02-11T15:24:27.336Z,3.25
2023-02-11T15:27:00.761Z,9.18
2023-02-11T15:29:35.721Z,6.40
2023-02-11T15:32:13.504Z,6.18
2023-02-11T15:34:42.146Z,8.20
2023-02-11T15:37:14.800Z,7.00
2023-02-11T15:39:44.724Z,4.28
2023-02-11T15:42:21.487Z,7.05
2023-02-11T15:44:56.601Z,5.45
2023-02-11T15:47:25.234Z,6.53
2023-02-11T15:49:53.480Z,6.53
2023-02-11T15:52:27.453Z,5.90
2023-02-11T15:55:00.881Z,4.40
2023-02-11T15:57:29.681Z,6.87
2023-02-11T15:59:58.844Z,7.65
2023-02-11T16:02:31.633Z,8.38
2023-02-11T16:05:01.554Z,5.20
2023-02-11T16:07:45.372Z,7.50
2023-02-11T16:10:27.382Z,5.30
2023-02-11T16:13:12.193Z,4.03
2023-02-11T16:15:46.997Z,3.67
2023-02-11T16:18:36.832Z,6.75
2023-02-11T16:21:07.984Z,6.47
2023-02-11T16:23:39.149Z,6.57
2023-02-11T16:26:13.648Z,5.45
2023-02-11T16:28:42.635Z,5.72
2023-02-11T16:31:11.051Z,7.60
2023-02-11T16:33:39.369Z,9.13
2023-02-11T16:36:13.947Z,6.57
2023-02-11T16:38:42.243Z,13.65
2023-02-11T16:41:12.850Z,16.38
2023-02-11T16:43:41.311Z,15.10
2023-02-11T16:46:10.063Z,11.52
2023-02-11T16:48:39.415Z,6.93
2023-02-11T16:51:09.767Z,6.47
2023-02-11T16:53:38.056Z,6.50
2023-02-11T16:56:06.802Z,7.55
2023-02-11T16:58:36.501Z,7.50
2023-02-11T17:01:04.811Z,5.23
2023-02-11T17:03:37.599Z,7.57
2023-02-11T17:06:07.126Z,6.60
2023-02-11T17:08:35.722Z,7.38
2023-02-11T17:11:04.669Z,12.75
2023-02-11T17:13:33.261Z,14.18
2023-02-11T17:16:02.980Z,15.05
2023-02-11T17:18:31.263Z,8.30
2023-02-11T17:20:59.494Z,11.18
2023-02-11T17:23:27.813Z,15.93
2023-02-11T17:25:59.115Z,23.95
2023-02-11T17:28:27.485Z,15.57
2023-02-11T17:30:55.877Z,16.42
2023-02-11T17:33:25.659Z,11.00
2023-02-11T17:35:54.338Z,20.73
2023-02-11T17:38:22.690Z,8.18
2023-02-11T17:40:59.210Z,10.00
2023-02-11T17:43:27.769Z,8.10
2023-02-11T17:45:56.367Z,7.95
2023-02-11T17:48:26.338Z,10.30
2023-02-11T17:50:54.711Z,8.70
2023-02-11T17:53:23.103Z,10.15
2023-02-11T17:55:51.603Z,15.13
2023-02-11T17:58:20.036Z,10.15
2023-02-11T18:00:48.444Z,12.52
2023-02-11T18:03:16.704Z,11.20
2023-02-11T18:05:46.405Z,11.70
2023-02-11T18:08:14.964Z,11.80
2023-02-11T18:10:43.683Z,12.05
2023-02-11T18:13:11.910Z,12.90
2023-02-11T18:15:40.234Z,11.65
2023-02-11T18:18:08.504Z,11.27
2023-02-11T18:20:37.013Z,8.40
2023-02-11T18:23:06.683Z,16.42
2023-02-11T18:25:34.942Z,11.13
2023-02-11T18:28:03.729Z,12.73
2023-02-11T18:30:32.057Z,9.55
2023-02-11T18:33:00.384Z,10.68
2023-02-11T18:35:28.673Z,8.63
2023-02-11T18:37:56.905Z,7.07
2023-02-11T18:40:26.519Z,8.07
2023-02-11T18:42:54.738Z,6.88
2023-02-11T18:45:24.152Z,9.80
2023-02-11T18:47:52.504Z,18.98
2023-02-11T18:50:22.217Z,26.37
2023-02-11T18:52:50.513Z,16.92
2023-02-11T18:55:23.436Z,12.60
2023-02-11T18:57:53.700Z,6.45
2023-02-11T19:00:23.126Z,6.38
2023-02-11T19:02:53.164Z,8.07
2023-02-11T19:05:21.689Z,20.77
2023-02-11T19:07:50.143Z,9.32
2023-02-11T19:10:18.852Z,5.70
2023-02-11T19:12:47.116Z,5.97
2023-02-11T19:15:16.858Z,6.93
2023-02-11T19:17:45.154Z,14.55
2023-02-11T19:20:13.651Z,9.98
2023-02-11T19:22:41.884Z,15.70
2023-02-11T19:25:11.147Z,12.98
2023-02-11T19:27:41.800Z,11.15
2023-02-11T19:30:11.677Z,7.22
2023-02-11T19:32:41.430Z,9.93
2023-02-11T19:35:09.931Z,7.18
2023-02-11T19:37:38.237Z,7.78
2023-02-11T19:40:08.882Z,6.70
2023-02-11T19:42:37.432Z,5.95
2023-02-11T19:45:07.418Z,9.27
2023-02-11T19:47:35.804Z,4.33
2023-02-11T19:50:06.075Z,8.30
2023-02-11T19:52:34.456Z,6.40
2023-02-11T19:55:02.677Z,6.40
2023-02-11T19:57:31.025Z,4.85
2023-02-11T19:59:59.267Z,3.90
2023-02-11T20:02:28.640Z,4.38
2023-02-11T20:04:56.927Z,6.60
2023-02-11T20:07:26.541Z,5.55
2023-02-11T20:09:54.821Z,4.65
2023-02-11T20:12:23.048Z,4.60
2023-02-11T20:14:51.304Z,7.88
2023-02-11T20:17:19.596Z,7.93
2023-02-11T20:19:47.957Z,4.95
2023-02-11T20:22:16.280Z,5.32
2023-02-11T20:24:46.001Z,6.20
2023-02-11T20:27:14.461Z,6.85
2023-02-11T20:29:42.747Z,6.05
2023-02-11T20:32:11.746Z,6.00
2023-02-11T20:34:40.136Z,5.90
2023-02-11T20:37:08.607Z,8.60
2023-02-11T20:39:40.913Z,5.88
2023-02-11T20:42:12.663Z,6.43
2023-02-11T20:44:40.917Z,7.35
2023-02-11T20:47:09.295Z,6.35
2023-02-11T20:49:37.801Z,5.05
2023-02-11T20:52:08.243Z,5.88
2023-02-11T20:54:36.483Z,6.77
2023-02-11T20:57:04.942Z,17.33
2023-02-11T20:59:34.578Z,8.37
2023-02-11T21:02:03.111Z,10.15
2023-02-11T21:04:32.813Z,7.93
2023-02-11T21:07:02.878Z,10.23
2023-02-11T21:09:34.000Z,10.57
2023-02-11T21:12:03.385Z,9.07
2023-02-11T21:14:31.774Z,12.65
2023-02-11T21:17:03.060Z,16.15
2023-02-11T21:19:31.328Z,11.55
2023-02-11T21:22:01.005Z,13.00
2023-02-11T21:24:30.910Z,13.77
2023-02-11T21:26:59.272Z,14.43
2023-02-11T21:29:27.566Z,14.73
2023-02-11T21:31:56.080Z,16.05
2023-02-11T21:34:25.859Z,15.98
2023-02-11T21:36:54.343Z,15.37
2023-02-11T21:39:22.621Z,12.93
2023-02-11T21:41:51.699Z,9.03
2023-02-11T21:44:20.345Z,7.90
2023-02-11T21:46:48.748Z,7.15
2023-02-11T21:49:17.212Z,7.70
2023-02-11T21:51:47.213Z,8.82
2023-02-11T21:54:15.768Z,8.85
2023-02-11T21:56:44.064Z,7.93
2023-02-11T21:59:14.391Z,12.55
2023-02-11T22:01:42.659Z,29.13
2023-02-11T22:04:11.574Z,48.88
2023-02-11T22:06:40.402Z,44.83
2023-02-11T22:09:14.528Z,34.83
2023-02-11T22:11:42.947Z,44.30
2023-02-11T22:14:11.290Z,45.97
2023-02-11T22:16:39.984Z,27.98
2023-02-11T22:19:08.456Z,15.05
2023-02-11T22:21:37.061Z,12.60
2023-02-11T22:24:05.718Z,14.27
2023-02-11T22:26:35.593Z,34.33
2023-02-11T22:29:03.909Z,52.73
2023-02-11T22:31:34.539Z,13.88
2023-02-11T22:34:04.026Z,13.05
2023-02-11T22:36:34.647Z,12.32
2023-02-11T22:39:03.923Z,11.75
2023-02-11T22:41:32.289Z,10.00
2023-02-11T22:44:01.920Z,8.85
2023-02-11T22:46:31.739Z,9.75
2023-02-11T22:49:00.019Z,10.48
2023-02-11T22:51:31.066Z,8.30
2023-02-11T22:54:01.039Z,6.47
2023-02-11T22:56:31.065Z,5.28
2023-02-11T22:59:02.338Z,6.20
2023-02-11T23:01:31.592Z,8.90
2023-02-11T23:04:01.238Z,8.32
2023-02-11T23:06:29.736Z,7.87
2023-02-11T23:08:58.278Z,8.00
2023-02-11T23:11:28.659Z,8.55
2023-02-11T23:13:57.883Z,9.52
2023-02-11T23:16:30.898Z,8.25
2023-02-11T23:19:02.297Z,13.88
2023-02-11T23:21:33.363Z,9.63
2023-02-11T23:24:04.958Z,10.75
2023-02-11T23:26:33.442Z,12.43
2023-02-11T23:29:01.755Z,13.63
2023-02-11T23:31:34.256Z,14.98
2023-02-11T23:34:03.202Z,22.63
2023-02-11T23:36:31.874Z,14.70
2023-02-11T23:39:00.132Z,8.70
2023-02-11T23:41:28.595Z,9.20
2023-02-11T23:43:59.055Z,8.95
2023-02-11T23:46:28.549Z,7.60
2023-02-11T23:48:58.297Z,3.97
2023-02-11T23:51:26.535Z,6.25
2023-02-11T23:53:56.231Z,5.88
2023-02-11T23:56:26.913Z,8.00
2023-02-11T23:58:57.320Z,4.22
